Time;durP1;ratioP1;P1;durP2;ratioP2;P2;SDS_P1;SDS_P2;PMS_P1;PMS_P2;Temp;Humidity;BMP_temperature;BMP_pressure;BME280_temperature;BME280_humidity;BME280_pressure;Samples;Min_cycle;Max_cycle;Signal;HPM_P1;HPM_P2
2023/07/08 00:00:45;;;;;;;7.85;4.28;;;;;;;21.12;70.77;100620.44;8309596;28;20041;-61
2023/07/08 00:04:45;;;;;;;7.90;4.10;;;;;;;20.89;73.48;100614.38;8310819;28;20042;-61
2023/07/08 00:08:46;;;;;;;8.82;5.30;;;;;;;20.99;74.36;100605.78;8312532;28;20042;-61
2023/07/08 00:12:50;;;;;;;11.00;4.80;;;;;;;20.85;76.57;100590.25;8310246;28;20042;-60
2023/07/08 00:16:51;;;;;;;12.98;4.90;;;;;;;20.77;76.85;100596.75;8305876;28;20038;-61
2023/07/08 00:20:52;;;;;;;9.35;5.30;;;;;;;20.61;77.12;100601.75;8313145;28;20041;-61
2023/07/08 00:24:53;;;;;;;8.50;4.60;;;;;;;20.58;76.33;100599.41;8310380;28;20034;-61
2023/07/08 00:28:54;;;;;;;9.25;5.22;;;;;;;20.70;76.38;100600.53;8311043;28;20524;-61
2023/07/08 00:32:56;;;;;;;7.80;5.38;;;;;;;20.62;77.71;100598.81;8307386;28;20431;-61
2023/07/08 00:36:57;;;;;;;14.18;4.72;;;;;;;20.25;79.62;100606.63;8310253;28;20552;-61
2023/07/08 00:45:24;;;;;;;7.78;4.53;;;;;;;20.12;83.40;100590.00;8300052;28;20468;-61
2023/07/08 00:49:38;;;;;;;10.10;5.35;;;;;;;20.29;79.48;100591.44;8268212;28;20034;-61
2023/07/08 00:53:39;;;;;;;8.73;5.05;;;;;;;20.06;82.09;100590.81;8269409;28;20046;-61
2023/07/08 00:57:43;;;;;;;13.10;6.40;;;;;;;20.04;78.85;100592.91;8270695;28;20046;-61
2023/07/08 01:01:44;;;;;;;12.05;6.75;;;;;;;20.16;78.15;100592.16;8267541;28;20432;-62
2023/07/08 01:05:46;;;;;;;10.95;5.47;;;;;;;20.15;77.83;100586.88;8270676;28;20042;-62
2023/07/08 01:09:51;;;;;;;14.55;6.82;;;;;;;20.17;77.01;100582.91;8267599;28;20038;-62
2023/07/08 01:13:53;;;;;;;10.60;6.03;;;;;;;20.14;76.38;100582.44;8267509;28;20091;-62
2023/07/08 01:17:54;;;;;;;8.48;5.45;;;;;;;20.02;76.36;100576.63;8270012;28;20445;-62
2023/07/08 01:22:00;;;;;;;16.25;6.45;;;;;;;20.03;76.12;100580.25;8268559;28;20038;-62
2023/07/08 01:26:01;;;;;;;12.55;7.00;;;;;;;20.03;75.43;100586.56;8269590;28;20415;-62
2023/07/08 01:30:03;;;;;;;11.90;6.10;;;;;;;19.85;76.61;100588.13;8300054;28;20041;-63
2023/07/08 01:34:05;;;;;;;9.35;5.68;;;;;;;19.77;76.54;100585.50;8297376;28;20062;-62
2023/07/08 01:38:10;;;;;;;10.00;6.47;;;;;;;19.68;76.83;100575.72;8306692;28;20037;-62
2023/07/08 01:42:10;;;;;;;12.82;6.85;;;;;;;19.60;77.08;100575.88;8301162;28;20523;-61
2023/07/08 01:46:20;;;;;;;11.77;6.03;;;;;;;19.54;77.77;100576.66;8301214;28;20419;-62
2023/07/08 01:50:21;;;;;;;14.18;6.47;;;;;;;19.44;79.57;100579.72;8300357;28;20057;-62
2023/07/08 01:54:22;;;;;;;11.02;7.07;;;;;;;19.40;79.22;100573.78;8291304;28;20042;-62
2023/07/08 01:58:22;;;;;;;13.65;7.38;;;;;;;19.36;80.13;100566.13;8275933;28;20069;-62
2023/07/08 02:02:24;;;;;;;20.35;7.55;;;;;;;19.23;80.56;100561.34;8276059;28;20107;-62
2023/07/08 02:06:24;;;;;;;14.60;8.15;;;;;;;19.21;79.00;100554.34;8277385;28;20506;-61
2023/07/08 02:10:25;;;;;;;15.25;7.63;;;;;;;19.09;79.94;100558.66;8280151;28;20400;-61
2023/07/08 02:14:26;;;;;;;16.92;8.30;;;;;;;19.02;79.83;100557.72;8278239;28;20095;-61
2023/07/08 02:18:26;;;;;;;14.95;7.75;;;;;;;18.96;80.04;100545.66;8279585;28;20042;-65
2023/07/08 02:22:27;;;;;;;18.02;8.45;;;;;;;18.91;79.98;100553.59;8278718;28;20041;-65
2023/07/08 02:26:27;;;;;;;16.75;8.32;;;;;;;18.83;80.28;100541.91;8280102;28;20140;-65
2023/07/08 02:30:29;;;;;;;16.45;8.57;;;;;;;18.87;79.92;100532.25;8276286;28;20050;-65
2023/07/08 02:34:30;;;;;;;21.52;9.00;;;;;;;18.79;79.88;100535.97;8278507;28;20551;-65
2023/07/08 02:38:31;;;;;;;17.33;8.57;;;;;;;18.76;79.56;100536.34;8278464;28;20073;-66
2023/07/08 02:42:31;;;;;;;13.77;8.30;;;;;;;18.67;79.70;100542.97;8277340;28;20092;-64
2023/07/08 02:46:32;;;;;;;15.38;8.18;;;;;;;18.67;79.73;100553.94;8275142;28;20055;-64
2023/07/08 02:50:33;;;;;;;15.27;8.45;;;;;;;18.44;81.66;100546.88;8278441;28;20100;-66
2023/07/08 02:54:34;;;;;;;15.13;8.05;;;;;;;18.39;81.86;100544.72;8278884;28;20491;-67
2023/07/08 02:58:35;;;;;;;13.23;8.23;;;;;;;18.40;81.81;100546.44;8276277;28;20045;-67
2023/07/08 03:02:35;;;;;;;21.42;9.50;;;;;;;18.37;82.49;100554.16;8274367;28;20117;-67
2023/07/08 03:06:36;;;;;;;16.73;8.25;;;;;;;18.34;82.91;100557.25;8275416;28;20038;-67
2023/07/08 03:10:36;;;;;;;17.17;8.90;;;;;;;18.37;81.78;100545.97;8277325;28;20041;-67
2023/07/08 03:14:37;;;;;;;21.05;8.82;;;;;;;18.43;82.12;100546.06;8277431;28;20046;-66
2023/07/08 03:18:45;;;;;;;14.43;8.15;;;;;;;18.40;80.84;100551.91;8278047;28;20038;-67
2023/07/08 03:22:47;;;;;;;20.35;9.00;;;;;;;18.33;80.78;100556.41;8278002;28;20419;-67
2023/07/08 03:26:48;;;;;;;16.73;8.48;;;;;;;18.21;81.55;100552.44;8277371;28;20116;-67
2023/07/08 03:30:52;;;;;;;21.70;9.40;;;;;;;18.33;82.17;100553.66;8274801;28;20084;-67
2023/07/08 03:34:53;;;;;;;17.55;8.43;;;;;;;18.32;82.77;100553.84;8274841;28;20046;-67
2023/07/08 03:38:57;;;;;;;15.07;8.00;;;;;;;18.12;84.55;100561.81;8278571;28;20033;-67
2023/07/08 03:42:57;;;;;;;18.77;9.13;;;;;;;18.25;83.16;100559.25;8275300;28;20041;-67
2023/07/08 03:47:00;;;;;;;18.80;8.77;;;;;;;18.24;83.40;100557.53;8276743;28;20042;-67
2023/07/08 03:51:01;;;;;;;18.58;8.70;;;;;;;18.09;84.05;100570.38;8275209;28;20072;-65
2023/07/08 03:55:03;;;;;;;20.00;8.85;;;;;;;18.20;83.55;100560.84;8277174;28;20077;-66
2023/07/08 03:59:04;;;;;;;16.88;9.60;;;;;;;18.30;82.65;100570.47;8275756;28;20176;-67
2023/07/08 04:03:07;;;;;;;19.17;8.60;;;;;;;18.31;83.49;100569.44;8274425;28;20040;-67
2023/07/08 04:07:08;;;;;;;18.45;8.88;;;;;;;18.33;82.33;100567.34;8275887;28;20061;-67
2023/07/08 04:11:15;;;;;;;13.30;8.55;;;;;;;18.45;81.88;100565.88;8275238;28;20496;-66
2023/07/08 04:15:16;;;;;;;17.25;8.65;;;;;;;18.36;82.69;100566.97;8275166;28;20042;-67
2023/07/08 04:19:16;;;;;;;17.55;8.50;;;;;;;18.54;81.66;100561.97;8276560;28;20042;-67
2023/07/08 04:23:17;;;;;;;15.85;9.00;;;;;;;18.62;81.84;100558.28;8277836;28;20513;-67
2023/07/08 04:27:17;;;;;;;16.75;8.55;;;;;;;18.59;81.09;100561.41;8273783;28;20544;-67
2023/07/08 04:31:18;;;;;;;15.82;8.27;;;;;;;18.62;79.75;100572.84;8273897;28;20496;-66
2023/07/08 04:35:18;;;;;;;17.20;8.95;;;;;;;18.74;78.95;100565.84;8273801;28;20124;-67
2023/07/08 04:39:19;;;;;;;17.23;8.65;;;;;;;19.04;77.42;100561.13;8275606;28;20038;-67
2023/07/08 04:43:21;;;;;;;15.63;7.60;;;;;;;19.28;76.11;100564.38;8276021;28;20041;-67
2023/07/08 04:47:21;;;;;;;16.45;8.18;;;;;;;19.60;75.07;100579.44;8274066;28;20531;-67
2023/07/08 04:51:22;;;;;;;16.35;8.48;;;;;;;19.89;72.96;100578.44;8276858;28;20419;-67
2023/07/08 04:55:22;;;;;;;16.27;7.53;;;;;;;20.18;72.46;100579.09;8274543;28;20165;-67
2023/07/08 04:59:24;;;;;;;17.48;8.13;;;;;;;20.33;71.59;100581.72;8271410;28;20077;-67
2023/07/08 05:03:25;;;;;;;14.68;7.95;;;;;;;20.24;72.28;100585.69;8266614;28;20049;-67
2023/07/08 05:07:25;;;;;;;14.07;7.25;;;;;;;20.36;72.15;100581.31;8269253;28;20049;-67
2023/07/08 05:11:26;;;;;;;14.52;7.20;;;;;;;20.49;74.44;100575.94;8288641;28;20426;-67
2023/07/08 05:15:27;;;;;;;13.73;7.70;;;;;;;20.77;74.92;100571.19;8267057;28;20053;-67
2023/07/08 05:19:27;;;;;;;15.02;8.50;;;;;;;20.91;75.59;100575.69;8276303;28;20046;-67
2023/07/08 05:23:28;;;;;;;14.35;7.35;;;;;;;21.32;74.07;100576.50;8269071;28;20084;-67
2023/07/08 05:27:29;;;;;;;14.30;7.82;;;;;;;21.68;72.24;100578.88;8274015;28;20049;-67
2023/07/08 05:31:29;;;;;;;13.23;7.53;;;;;;;22.16;68.64;100578.44;8273358;28;20499;-67
2023/07/08 05:35:29;;;;;;;12.77;7.57;;;;;;;22.31;67.66;100581.81;8273868;28;20046;-67
2023/07/08 05:39:31;;;;;;;15.02;7.80;;;;;;;22.60;67.19;100591.53;8276566;28;20039;-67
2023/07/08 05:43:32;;;;;;;14.82;7.28;;;;;;;23.12;65.98;100592.16;8280395;28;20046;-66
2023/07/08 05:47:32;;;;;;;13.83;7.53;;;;;;;23.06;65.74;100595.78;8279063;28;20489;-67
2023/07/08 05:51:34;;;;;;;14.10;7.80;;;;;;;23.60;64.99;100594.47;8281055;28;20343;-66
2023/07/08 05:55:34;;;;;;;11.90;7.32;;;;;;;23.96;63.26;100595.47;8275482;28;20087;-67
2023/07/08 05:59:36;;;;;;;12.13;6.88;;;;;;;24.29;60.74;100601.56;8279861;28;20089;-66
2023/07/08 06:03:37;;;;;;;11.50;7.15;;;;;;;24.76;60.10;100611.06;8277258;28;20393;-68
2023/07/08 06:07:37;;;;;;;11.25;6.43;;;;;;;24.21;60.69;100609.31;8279782;28;20037;-67
2023/07/08 06:11:38;;;;;;;10.70;6.45;;;;;;;24.17;61.68;100635.66;8279105;28;20049;-67
2023/07/08 06:15:39;;;;;;;12.20;6.85;;;;;;;24.07;61.77;100625.16;8280211;28;20108;-67
2023/07/08 06:19:39;;;;;;;13.43;6.63;;;;;;;24.05;62.46;100604.31;8292023;28;20045;-67
2023/07/08 06:23:40;;;;;;;9.40;6.20;;;;;;;23.73;64.49;100600.75;8286928;28;20042;-67
2023/07/08 06:27:40;;;;;;;11.75;6.22;;;;;;;23.84;64.12;100601.91;8294551;28;20041;-68
2023/07/08 06:31:41;;;;;;;12.93;6.93;;;;;;;23.87;62.60;100598.69;8294219;28;20034;-67
2023/07/08 06:35:43;;;;;;;12.43;6.60;;;;;;;23.94;63.05;100581.00;8293598;28;20077;-67
2023/07/08 06:39:43;;;;;;;9.90;6.68;;;;;;;24.21;63.34;100581.66;8285909;28;20492;-67
2023/07/08 06:43:44;;;;;;;13.20;6.07;;;;;;;24.46;61.71;100569.47;8277273;28;20463;-67
2023/07/08 06:47:50;;;;;;;15.25;6.68;;;;;;;24.66;60.40;100563.75;8279325;28;20065;-67
2023/07/08 06:51:51;;;;;;;12.43;5.80;;;;;;;24.68;59.11;100550.53;8276976;28;20056;-68
2023/07/08 06:55:51;;;;;;;10.03;6.03;;;;;;;24.78;57.72;100551.69;8279029;28;20068;-68
2023/07/08 06:59:52;;;;;;;11.57;5.88;;;;;;;24.94;57.10;100570.41;8277386;28;20336;-67
2023/07/08 07:03:52;;;;;;;8.35;5.55;;;;;;;24.88;57.79;100567.72;8279164;28;20046;-68
2023/07/08 07:07:53;;;;;;;9.00;5.57;;;;;;;25.22;57.88;100569.00;8278896;28;20077;-68
2023/07/08 07:11:54;;;;;;;11.82;6.15;;;;;;;25.93;57.95;100575.34;8277804;28;20288;-67
2023/07/08 07:15:54;;;;;;;11.02;6.22;;;;;;;26.30;55.45;100577.72;8280367;28;20038;-68
2023/07/08 07:19:55;;;;;;;9.52;6.53;;;;;;;26.57;54.44;100565.03;8278488;28;20038;-68
2023/07/08 07:23:55;;;;;;;8.98;6.00;;;;;;;26.97;53.37;100561.47;8274703;28;20381;-68
2023/07/08 07:27:56;;;;;;;10.25;5.75;;;;;;;27.26;53.07;100564.03;8277982;28;20038;-68
2023/07/08 07:31:56;;;;;;;7.40;5.57;;;;;;;27.56;52.45;100569.31;8278305;28;20053;-68
2023/07/08 07:35:57;;;;;;;8.77;6.15;;;;;;;27.56;52.31;100585.97;8276591;28;20038;-65
2023/07/08 07:39:58;;;;;;;9.82;7.03;;;;;;;27.60;52.89;100585.25;8277459;28;20132;-65
2023/07/08 07:43:58;;;;;;;10.00;5.85;;;;;;;27.93;52.29;100598.41;8275764;28;20042;-65
2023/07/08 07:47:59;;;;;;;9.60;6.28;;;;;;;27.95;51.48;100601.75;8277739;28;20042;-65
2023/07/08 07:51:59;;;;;;;7.43;5.80;;;;;;;28.00;52.28;100604.63;8274256;28;20030;-65
2023/07/08 07:56:02;;;;;;;9.20;6.05;;;;;;;28.46;51.64;100594.03;8279191;28;20496;-65
2023/07/08 08:00:03;;;;;;;10.35;6.57;;;;;;;28.70;51.51;100605.78;8271719;28;20064;-64
2023/07/08 08:04:26;;;;;;;11.00;5.93;;;;;;;28.90;50.70;100603.25;8341642;27;20385;-66
2023/07/08 08:08:26;;;;;;;8.82;6.30;;;;;;;28.95;50.59;100592.19;8337616;28;20056;-67
2023/07/08 08:12:26;;;;;;;9.52;6.20;;;;;;;29.04;51.55;100585.09;8331293;28;20485;-67
2023/07/08 08:16:27;;;;;;;8.93;6.30;;;;;;;29.10;50.63;100589.63;8336513;28;20382;-67
2023/07/08 08:20:29;;;;;;;11.77;6.15;;;;;;;29.38;50.41;100580.19;8331132;28;20327;-67
2023/07/08 08:24:29;;;;;;;9.60;6.13;;;;;;;29.76;50.12;100575.34;8333459;28;20061;-67
2023/07/08 08:28:30;;;;;;;9.15;5.63;;;;;;;29.97;50.16;100574.41;8335041;28;20037;-67
2023/07/08 08:32:31;;;;;;;8.63;6.25;;;;;;;30.35;49.10;100568.59;8327724;28;20042;-67
2023/07/08 08:36:31;;;;;;;9.15;5.68;;;;;;;30.61;47.18;100571.56;8330554;28;20492;-67
2023/07/08 08:40:32;;;;;;;6.82;5.30;;;;;;;30.38;48.33;100579.22;8329414;28;20125;-63
2023/07/08 08:44:35;;;;;;;14.27;6.20;;;;;;;29.98;48.21;100592.81;8326296;28;20046;-66
2023/07/08 08:48:44;;;;;;;16.93;6.20;;;;;;;30.38;47.48;100595.97;8314563;28;20419;-62
2023/07/08 08:52:45;;;;;;;20.90;6.10;;;;;;;30.28;47.81;100603.44;8294087;28;20133;-63
2023/07/08 08:57:01;;;;;;;16.70;6.32;;;;;;;30.33;47.96;100601.53;8299880;28;20045;-63
2023/07/08 09:01:08;;;;;;;19.58;6.15;;;;;;;30.51;47.08;100599.41;8318217;28;20056;-61
2023/07/08 09:05:11;;;;;;;8.65;5.60;;;;;;;30.79;47.81;100594.31;8332911;28;20515;-66
2023/07/08 09:09:36;;;;;;;12.82;6.00;;;;;;;30.98;45.62;100601.09;8332024;28;20465;-63
2023/07/08 09:13:38;;;;;;;12.60;5.57;;;;;;;31.07;46.33;100591.09;8317425;28;20091;-66
2023/07/08 09:17:38;;;;;;;14.95;6.30;;;;;;;31.11;46.79;100583.00;8308644;28;20495;-64
2023/07/08 09:21:49;;;;;;;9.77;5.30;;;;;;;31.45;46.42;100575.88;8309737;28;20464;-64
2023/07/08 09:26:16;;;;;;;6.60;5.03;;;;;;;31.98;43.68;100569.81;8303021;28;20037;-65
2023/07/08 09:30:20;;;;;;;11.75;4.55;;;;;;;32.47;42.79;100573.75;8303416;28;20044;-65
2023/07/08 09:34:23;;;;;;;6.28;4.68;;;;;;;32.39;42.86;100565.94;8307482;28;20116;-65
2023/07/08 09:38:23;;;;;;;7.00;4.97;;;;;;;32.65;42.71;100559.13;8306093;28;20499;-65
2023/07/08 09:42:31;;;;;;;8.93;4.93;;;;;;;33.14;42.76;100554.50;8308406;28;20407;-65
2023/07/08 09:46:37;;;;;;;6.65;3.92;;;;;;;33.09;43.78;100554.53;8305852;28;20038;-64
2023/07/08 09:50:37;;;;;;;6.55;3.95;;;;;;;33.26;42.48;100559.75;8308301;28;20045;-65
2023/07/08 09:54:41;;;;;;;5.60;3.73;;;;;;;33.37;42.51;100553.84;8306185;28;20041;-65
2023/07/08 09:58:44;;;;;;;5.97;4.10;;;;;;;33.48;42.67;100540.59;8303791;28;20343;-65
2023/07/08 10:02:56;;;;;;;9.30;4.28;;;;;;;34.00;41.64;100545.56;8302868;28;20092;-65
2023/07/08 10:06:56;;;;;;;13.45;4.63;;;;;;;35.20;40.27;100547.06;8307952;28;20515;-66
2023/07/08 10:11:09;;;;;;;12.25;4.57;;;;;;;36.16;39.55;100550.09;8305526;28;20879;-65
2023/07/08 10:15:21;;;;;;;6.47;3.53;;;;;;;37.29;37.26;100544.50;8300546;28;20157;-62
2023/07/08 10:19:22;;;;;;;6.82;3.75;;;;;;;38.70;35.83;100549.47;8301818;28;20053;-62
2023/07/08 10:24:02;;;;;;;7.35;3.35;;;;;;;38.23;35.87;100542.53;8306465;28;20069;-61
2023/07/08 10:28:24;;;;;;;5.57;4.25;;;;;;;39.12;34.79;100543.97;8302955;28;20038;-61
2023/07/08 10:32:55;;;;;;;11.20;4.60;;;;;;;39.84;35.60;100538.63;8296736;28;20038;-60
2023/07/08 10:37:10;;;;;;;6.47;4.10;;;;;;;40.00;33.86;100539.78;8300237;28;20120;-62
2023/07/08 10:41:44;;;;;;;7.18;3.83;;;;;;;39.56;33.82;100544.91;8296810;28;20042;-63
2023/07/08 10:46:17;;;;;;;9.80;4.55;;;;;;;39.59;33.99;100539.44;8297152;28;20046;-64
2023/07/08 10:50:57;;;;;;;7.90;4.20;;;;;;;39.56;34.70;100540.09;8299628;28;20038;-63
2023/07/08 10:55:30;;;;;;;7.43;4.25;;;;;;;39.90;34.26;100542.13;8305468;28;20038;-63
2023/07/08 11:00:11;;;;;;;9.68;3.60;;;;;;;40.46;33.45;100525.69;8299233;28;20133;-63
2023/07/08 11:04:41;;;;;;;5.38;3.50;;;;;;;40.01;33.79;100535.78;8300967;28;20093;-63
2023/07/08 11:08:46;;;;;;;7.40;3.55;;;;;;;39.67;34.20;100541.41;8293417;28;20049;-63
2023/07/08 11:12:53;;;;;;;9.68;3.90;;;;;;;39.97;33.76;100534.78;8303044;28;20034;-63
2023/07/08 11:17:32;;;;;;;6.65;4.20;;;;;;;40.19;33.32;100534.56;8301234;28;20092;-62
2023/07/08 11:21:40;;;;;;;8.85;3.75;;;;;;;40.42;33.68;100540.88;8294841;28;20049;-63
2023/07/08 11:25:42;;;;;;;5.65;3.70;;;;;;;40.47;33.41;100537.88;8304147;28;20048;-63
2023/07/08 11:29:48;;;;;;;7.07;3.63;;;;;;;40.76;32.50;100535.94;8302776;28;20507;-64
2023/07/08 11:33:50;;;;;;;8.32;3.85;;;;;;;40.49;33.32;100536.34;8301202;28;20033;-66
2023/07/08 11:37:50;;;;;;;27.92;6.22;;;;;;;40.61;33.31;100545.00;8304137;28;20129;-65
2023/07/08 11:42:03;;;;;;;21.48;5.15;;;;;;;41.04;32.81;100535.47;8304218;28;20052;-61
2023/07/08 11:46:07;;;;;;;6.28;4.13;;;;;;;40.43;32.63;100537.72;8303642;28;20473;-63
2023/07/08 11:50:21;;;;;;;5.05;3.35;;;;;;;40.67;31.89;100532.31;8301612;28;20034;-64
2023/07/08 11:54:31;;;;;;;5.88;3.67;;;;;;;40.92;31.62;100528.53;8298783;28;20121;-65
2023/07/08 11:58:51;;;;;;;10.77;4.18;;;;;;;41.52;31.32;100530.22;8300241;28;20053;-64
2023/07/08 12:02:56;;;;;;;9.57;4.30;;;;;;;40.79;32.17;100529.59;8297807;28;22652;-63
2023/07/08 12:07:18;;;;;;;8.18;3.92;;;;;;;40.81;31.58;100515.91;8304306;28;20087;-65
2023/07/08 12:11:18;;;;;;;7.72;4.10;;;;;;;40.98;31.58;100525.50;8301236;28;20034;-65
2023/07/08 12:15:24;;;;;;;7.32;3.63;;;;;;;40.60;31.76;100520.66;8303718;28;20045;-65
2023/07/08 12:19:28;;;;;;;7.47;4.35;;;;;;;37.61;35.10;100514.41;8302127;28;20156;-64
2023/07/08 12:23:29;;;;;;;9.35;4.47;;;;;;;37.05;36.58;100512.88;8303547;28;20038;-64
2023/07/08 12:27:31;;;;;;;10.73;4.20;;;;;;;36.88;35.14;100509.88;8301944;28;20129;-64
2023/07/08 12:31:32;;;;;;;11.02;4.35;;;;;;;36.12;35.98;100504.00;8297897;28;20053;-66
2023/07/08 12:35:34;;;;;;;12.80;4.20;;;;;;;35.83;36.90;100503.41;8297740;28;20042;-64
2023/07/08 12:39:35;;;;;;;9.38;4.40;;;;;;;35.92;36.16;100497.91;8303951;28;20114;-65
2023/07/08 12:43:35;;;;;;;6.15;4.07;;;;;;;35.46;36.23;100489.34;8301857;28;20048;-64
2023/07/08 12:47:36;;;;;;;6.53;4.05;;;;;;;35.81;37.52;100491.59;8303306;28;20126;-66
2023/07/08 12:51:36;;;;;;;16.42;5.20;;;;;;;35.52;37.75;100490.91;8308805;28;20045;-66
2023/07/08 12:55:40;;;;;;;8.68;4.65;;;;;;;35.63;37.08;100482.03;8301313;28;20333;-65
2023/07/08 12:59:40;;;;;;;8.93;4.68;;;;;;;35.51;37.67;100492.06;8299302;28;21002;-66
2023/07/08 13:03:45;;;;;;;6.45;4.25;;;;;;;35.38;38.09;100473.16;8302827;28;20455;-67
2023/07/08 13:07:46;;;;;;;7.43;4.43;;;;;;;35.68;38.16;100472.66;8302261;28;20124;-65
2023/07/08 13:11:47;;;;;;;7.00;4.38;;;;;;;35.55;38.27;100470.63;8306731;28;20045;-67
2023/07/08 13:15:48;;;;;;;8.50;4.22;;;;;;;35.84;37.30;100478.88;8304382;28;20077;-59
2023/07/08 13:19:50;;;;;;;8.93;4.32;;;;;;;35.53;37.73;100470.09;8307414;28;20038;-60
2023/07/08 13:23:50;;;;;;;15.25;5.40;;;;;;;35.64;37.53;100474.41;8306942;28;20042;-57
2023/07/08 13:27:59;;;;;;;13.70;5.03;;;;;;;35.56;38.91;100472.31;8307258;28;20495;-64
2023/07/08 13:32:05;;;;;;;8.88;4.32;;;;;;;35.44;37.19;100469.97;8299570;28;20389;-61
2023/07/08 13:36:06;;;;;;;12.43;4.50;;;;;;;35.38;38.04;100467.53;8305067;28;20519;-60
2023/07/08 13:40:08;;;;;;;11.10;5.07;;;;;;;35.36;39.10;100472.63;8303705;28;20453;-62
2023/07/08 13:44:09;;;;;;;12.40;5.47;;;;;;;35.44;38.74;100469.13;8304794;28;20455;-60
2023/07/08 13:48:13;;;;;;;14.25;4.82;;;;;;;35.06;39.01;100465.44;8307179;28;20037;-61
2023/07/08 13:52:19;;;;;;;10.10;4.53;;;;;;;35.41;38.79;100475.34;8303857;28;20091;-57
2023/07/08 13:56:24;;;;;;;9.43;4.80;;;;;;;35.35;39.16;100465.31;8306087;28;20103;-57
2023/07/08 14:00:25;;;;;;;9.48;5.32;;;;;;;35.44;37.93;100469.13;8301711;28;20033;-57
2023/07/08 14:04:30;;;;;;;10.05;4.78;;;;;;;35.69;37.81;100465.88;8306151;28;20042;-57
2023/07/08 14:08:31;;;;;;;7.65;5.00;;;;;;;36.01;38.07;100468.72;8305339;28;20052;-57
2023/07/08 14:12:31;;;;;;;9.17;4.37;;;;;;;36.36;38.21;100473.72;8306520;28;20064;-63
2023/07/08 14:16:35;;;;;;;6.10;4.27;;;;;;;36.56;37.50;100467.66;8298435;28;20499;-62
2023/07/08 14:20:35;;;;;;;6.45;4.63;;;;;;;36.39;38.54;100463.78;8304517;28;20712;-62
2023/07/08 14:24:36;;;;;;;10.43;4.57;;;;;;;36.25;36.49;100475.00;8303609;28;20096;-62
2023/07/08 14:28:36;;;;;;;7.63;4.20;;;;;;;36.65;37.00;100479.06;8312368;28;20033;-62
2023/07/08 14:32:37;;;;;;;9.77;4.65;;;;;;;36.82;36.73;100468.00;8312703;28;20285;-62
2023/07/08 14:36:37;;;;;;;8.05;4.22;;;;;;;36.84;37.30;100466.53;8304425;28;20046;-62
2023/07/08 14:40:40;;;;;;;10.30;4.68;;;;;;;36.48;36.92;100465.59;8305584;28;20056;-62
2023/07/08 14:44:42;;;;;;;10.15;4.80;;;;;;;36.31;37.61;100462.53;8302071;28;20064;-62
2023/07/08 14:48:43;;;;;;;9.93;4.72;;;;;;;36.03;37.63;100472.06;8298983;28;20411;-63
2023/07/08 14:52:43;;;;;;;8.18;4.32;;;;;;;36.18;37.10;100474.59;8303833;28;20100;-62
2023/07/08 14:56:46;;;;;;;7.17;4.50;;;;;;;36.01;38.17;100468.72;8304335;28;20045;-63
2023/07/08 15:00:46;;;;;;;6.47;4.70;;;;;;;35.98;38.06;100469.31;8300708;28;20630;-63
2023/07/08 15:04:47;;;;;;;9.43;4.85;;;;;;;35.80;37.90;100477.81;8303058;28;20038;-62
2023/07/08 15:08:47;;;;;;;5.78;4.57;;;;;;;35.97;37.43;100478.09;8303839;28;20128;-62
2023/07/08 15:12:48;;;;;;;8.90;4.57;;;;;;;35.76;38.27;100477.56;8300500;28;20046;-62
2023/07/08 15:16:50;;;;;;;8.35;4.53;;;;;;;35.88;38.54;100480.78;8298314;28;20189;-62
2023/07/08 15:20:51;;;;;;;8.90;5.20;;;;;;;35.72;38.87;100473.72;8296513;28;20045;-62
2023/07/08 15:24:52;;;;;;;7.00;4.57;;;;;;;35.45;39.19;100467.97;8301899;28;20065;-63
2023/07/08 15:28:52;;;;;;;9.18;4.68;;;;;;;35.31;39.46;100475.50;8322420;28;20781;-62
2023/07/08 15:32:53;;;;;;;8.57;4.95;;;;;;;35.28;39.67;100484.53;8295465;28;20403;-63
2023/07/08 15:36:54;;;;;;;11.27;4.97;;;;;;;35.02;40.95;100477.59;8300058;28;20099;-62
2023/07/08 15:40:55;;;;;;;12.98;4.82;;;;;;;35.03;40.26;100482.06;8302849;28;20033;-62
2023/07/08 15:44:55;;;;;;;7.70;4.70;;;;;;;35.03;41.29;100471.66;8289282;28;20038;-62
2023/07/08 15:48:56;;;;;;;5.95;4.45;;;;;;;34.95;41.58;100474.31;8264729;28;20389;-62
2023/07/08 15:52:56;;;;;;;12.83;5.10;;;;;;;34.81;41.34;100476.16;8271491;28;20410;-62
2023/07/08 15:56:57;;;;;;;10.40;5.23;;;;;;;34.83;41.50;100482.31;8269939;28;20391;-62
2023/07/08 16:01:02;;;;;;;9.18;5.20;;;;;;;34.80;44.63;100485.75;8269480;28;20782;-62
2023/07/08 16:05:03;;;;;;;13.27;5.07;;;;;;;34.75;41.72;100494.22;8299559;28;20551;-62
2023/07/08 16:09:04;;;;;;;8.18;4.72;;;;;;;34.63;42.43;100496.63;8303876;28;20457;-62
2023/07/08 16:13:04;;;;;;;7.70;4.70;;;;;;;34.55;43.94;100494.47;8300614;28;20553;-62
2023/07/08 16:17:10;;;;;;;9.68;4.85;;;;;;;34.63;43.55;100496.63;8295189;28;20045;-62
2023/07/08 16:21:10;;;;;;;14.40;5.65;;;;;;;34.76;42.24;100493.09;8294666;28;20054;-62
2023/07/08 16:25:16;;;;;;;7.22;4.38;;;;;;;34.77;43.13;100498.44;8304789;28;20076;-62
2023/07/08 16:29:17;;;;;;;8.82;4.78;;;;;;;34.89;42.61;100498.03;8302888;28;20174;-62
2023/07/08 16:33:17;;;;;;;30.23;5.93;;;;;;;34.90;41.85;100499.69;8301071;28;20033;-62
2023/07/08 16:37:17;;;;;;;7.88;4.70;;;;;;;35.03;41.54;100501.75;8305562;28;20041;-62
2023/07/08 16:41:20;;;;;;;10.32;4.60;;;;;;;34.94;42.16;100500.78;8309407;28;20490;-62
2023/07/08 16:45:23;;;;;;;10.05;5.00;;;;;;;35.08;45.10;100505.34;8308714;28;20048;-62
2023/07/08 16:49:23;;;;;;;10.90;3.88;;;;;;;34.67;40.55;100500.53;8299446;28;20041;-62
2023/07/08 16:53:24;;;;;;;6.55;3.75;;;;;;;34.67;39.96;100503.34;8309178;28;20137;-62
2023/07/08 16:57:26;;;;;;;8.77;4.80;;;;;;;34.61;40.30;100496.09;8305906;28;20045;-62
2023/07/08 17:01:28;;;;;;;6.72;3.50;;;;;;;34.73;39.77;100485.28;8305961;28;20276;-62
2023/07/08 17:05:31;;;;;;;6.80;3.47;;;;;;;34.70;38.96;100477.44;8304810;28;20042;-62
2023/07/08 17:09:31;;;;;;;7.32;4.40;;;;;;;34.51;39.18;100476.56;8303727;28;20557;-62
2023/07/08 17:13:32;;;;;;;6.67;3.40;;;;;;;34.45;39.63;100472.94;8303960;28;20041;-62
2023/07/08 17:17:33;;;;;;;9.57;3.85;;;;;;;34.30;40.76;100469.47;8303742;28;20042;-62
2023/07/08 17:21:34;;;;;;;12.77;4.30;;;;;;;34.12;41.79;100476.66;8306310;28;20477;-62
2023/07/08 17:25:34;;;;;;;7.67;4.40;;;;;;;33.80;42.80;100470.78;8306824;28;20049;-62
2023/07/08 17:29:35;;;;;;;10.27;3.85;;;;;;;33.69;42.93;100481.25;8308118;28;20650;-62
2023/07/08 17:33:35;;;;;;;5.33;3.37;;;;;;;33.46;42.91;100482.00;8304637;28;20392;-62
2023/07/08 17:37:35;;;;;;;10.93;4.83;;;;;;;33.23;43.57;100477.06;8306526;28;20301;-62
2023/07/08 17:41:37;;;;;;;8.05;4.10;;;;;;;33.29;44.13;100483.47;8308962;28;20775;-62
2023/07/08 17:45:41;;;;;;;9.02;4.50;;;;;;;33.21;44.69;100484.94;8307739;28;20046;-62
2023/07/08 17:49:42;;;;;;;7.00;3.42;;;;;;;33.27;42.91;100483.75;8306697;28;20046;-62
2023/07/08 17:53:43;;;;;;;6.45;3.92;;;;;;;33.30;44.93;100491.59;8303189;28;20046;-61
2023/07/08 17:57:47;;;;;;;7.07;3.78;;;;;;;33.17;45.51;100478.22;8304990;28;20040;-62
2023/07/08 18:01:47;;;;;;;7.47;3.95;;;;;;;32.87;46.33;100489.59;8302421;28;20126;-62
2023/07/08 18:05:48;;;;;;;9.13;4.30;;;;;;;33.03;45.35;100499.63;8305609;28;20041;-62
2023/07/08 18:09:48;;;;;;;10.40;4.00;;;;;;;33.06;47.45;100501.00;8309112;28;20084;-62
2023/07/08 18:13:51;;;;;;;8.10;3.70;;;;;;;32.98;47.51;100508.06;8305900;28;20041;-62
2023/07/08 18:17:55;;;;;;;6.53;3.78;;;;;;;33.02;47.76;100520.34;8305615;28;20033;-62
2023/07/08 18:21:55;;;;;;;10.68;4.65;;;;;;;32.87;47.54;100528.84;8305453;28;20497;-62
2023/07/08 18:25:55;;;;;;;11.60;4.07;;;;;;;32.92;47.55;100537.22;8306306;28;20041;-62
2023/07/08 18:29:56;;;;;;;10.13;3.90;;;;;;;32.69;51.01;100546.22;8301417;28;20487;-62
2023/07/08 18:34:00;;;;;;;7.77;4.00;;;;;;;32.47;49.04;100556.94;8297997;28;20045;-62
2023/07/08 18:38:01;;;;;;;6.57;3.72;;;;;;;32.40;48.73;100555.56;8306909;28;20345;-62
2023/07/08 18:42:01;;;;;;;10.52;4.63;;;;;;;32.42;47.33;100564.50;8300933;28;20034;-62
2023/07/08 18:46:02;;;;;;;6.20;4.47;;;;;;;32.32;47.02;100576.53;8299755;28;20052;-62
2023/07/08 18:50:02;;;;;;;10.37;5.30;;;;;;;32.16;49.65;100583.25;8307144;28;20096;-57